Time;durP1;ratioP1;P1;durP2;ratioP2;P2;SDS_P1;SDS_P2;PMS_P1;PMS_P2;Temp;Humidity;BMP_temperature;BMP_pressure;BME280_temperature;BME280_humidity;BME280_pressure;Samples;Min_cycle;Max_cycle;Signal;HPM_P1;HPM_P2
2022/03/16 00:01:08;;;;;;;;;;;;;;;;;;5067638;28;19941;-60
2022/03/16 00:03:34;;;;;;;;;;;;;;;;;;5069364;28;19964;-60
2022/03/16 00:06:00;;;;;;;;;;;;;;;;;;5069312;28;20263;-60
2022/03/16 00:08:28;;;;;;;;;;;;;;;;;;5068940;28;19954;-60
2022/03/16 00:10:54;;;;;;;;;;;;;;;;;;5059165;28;20318;-60
2022/03/16 00:13:21;;;;;;;;;;;;;;;;;;4717496;28;9999784;-60
2022/03/16 00:15:47;;;;;;;;;;;;;;;;;;5067900;28;19969;-60
2022/03/16 00:18:13;;;;;;;;;;;;;;;;;;5065228;28;19935;-60
2022/03/16 00:20:39;;;;;;;;;;;;;;;;;;5066892;28;20370;-60
2022/03/16 00:23:05;;;;;;;;;;;;;;;;;;5066674;28;19924;-59
2022/03/16 00:25:31;;;;;;;;;;;;;;;;;;5082464;22;19932;-71
2022/03/16 00:27:57;;;;;;;;;;;;;;;;;;5055576;28;19936;-71
2022/03/16 00:30:24;;;;;;;;;;;;;;;;;;5059716;28;19925;-71
2022/03/16 00:32:50;;;;;;;;;;;;;;;;;;5072411;28;20454;-69
2022/03/16 00:35:16;;;;;;;;;;;;;;;;;;5053934;28;19955;-69
2022/03/16 00:37:42;;;;;;;;;;;;;;;;;;5053459;28;19931;-69
2022/03/16 00:40:10;;;;;;;;;;;;;;;;;;5051491;28;19929;-69
2022/03/16 00:42:36;;;;;;;;;;;;;;;;;;5053602;28;20015;-67
2022/03/16 00:45:02;;;;;;;;;;;;;;;;;;5052984;28;20423;-68
2022/03/16 00:47:29;;;;;;;;;;;;;;;;;;5039224;28;20389;-68
2022/03/16 00:49:55;;;;;;;;;;;;;;;;;;5047143;28;20424;-69
2022/03/16 00:52:21;;;;;;;;;;;;;;;;;;5052630;28;19933;-68
2022/03/16 00:54:47;;;;;;;;;;;;;;;;;;5050927;28;20222;-69
2022/03/16 00:57:13;;;;;;;;;;;;;;;;;;5042350;28;19925;-68
2022/03/16 00:59:40;;;;;;;;;;;;;;;;;;5053255;28;19925;-69
2022/03/16 01:02:06;;;;;;;;;;;;;;;;;;5051234;28;19987;-67
2022/03/16 01:04:32;;;;;;;;;;;;;;;;;;5052883;28;20287;-67
2022/03/16 01:06:58;;;;;;;;;;;;;;;;;;5054139;28;19928;-65
2022/03/16 01:09:24;;;;;;;;;;;;;;;;;;5053822;28;19925;-64
2022/03/16 01:11:50;;;;;;;;;;;;;;;;;;5050622;28;19937;-64
2022/03/16 01:14:17;;;;;;;;;;;;;;;;;;5053331;28;19959;-63
2022/03/16 01:16:43;;;;;;;;;;;;;;;;;;5052532;28;20372;-63
2022/03/16 01:19:09;;;;;;;;;;;;;;;;;;5044477;28;19955;-63
2022/03/16 01:21:35;;;;;;;;;;;;;;;;;;5045143;28;19925;-65
2022/03/16 01:24:01;;;;;;;;;;;;;;;;;;5049176;28;19964;-63
2022/03/16 01:26:27;;;;;;;;;;;;;;;;;;5051745;28;19925;-65
2022/03/16 01:28:53;;;;;;;;;;;;;;;;;;5049036;28;20168;-63
2022/03/16 01:31:20;;;;;;;;;;;;;;;;;;5051213;28;19931;-63
2022/03/16 01:33:46;;;;;;;;;;;;;;;;;;5052349;28;20084;-62
2022/03/16 01:36:12;;;;;;;;;;;;;;;;;;5053666;28;19931;-62
2022/03/16 01:38:38;;;;;;;;;;;;;;;;;;5052709;28;20374;-62
2022/03/16 01:41:04;;;;;;;;;;;;;;;;;;5050977;28;19951;-62
2022/03/16 01:43:30;;;;;;;;;;;;;;;;;;5048579;28;19925;-63
2022/03/16 01:45:57;;;;;;;;;;;;;;;;;;5049605;28;20394;-63
2022/03/16 01:48:23;;;;;;;;;;;;;;;;;;5041518;28;19932;-63
2022/03/16 01:50:49;;;;;;;;;;;;;;;;;;5050425;28;19952;-63
2022/03/16 01:53:15;;;;;;;;;;;;;;;;;;5049986;28;19924;-62
2022/03/16 01:55:41;;;;;;;;;;;;;;;;;;5051163;28;19929;-63
2022/03/16 01:58:07;;;;;;;;;;;;;;;;;;5051792;28;19932;-63
2022/03/16 02:00:33;;;;;;;;;;;;;;;;;;5052280;28;19925;-66
2022/03/16 02:03:00;;;;;;;;;;;;;;;;;;5050314;28;19962;-66
2022/03/16 02:05:26;;;;;;;;;;;;;;;;;;5052048;28;20285;-66
2022/03/16 02:07:52;;;;;;;;;;;;;;;;;;5052146;28;19928;-65
2022/03/16 02:10:18;;;;;;;;;;;;;;;;;;5052016;28;19935;-66
2022/03/16 02:12:44;;;;;;;;;;;;;;;;;;5049137;28;19968;-66
2022/03/16 02:15:10;;;;;;;;;;;;;;;;;;5048414;28;20054;-66
2022/03/16 02:17:37;;;;;;;;;;;;;;;;;;5048565;28;19925;-65
2022/03/16 02:20:03;;;;;;;;;;;;;;;;;;5043543;28;19952;-65
2022/03/16 02:22:29;;;;;;;;;;;;;;;;;;5049938;28;20400;-66
2022/03/16 02:24:55;;;;;;;;;;;;;;;;;;5039101;28;20304;-66
2022/03/16 02:27:22;;;;;;;;;;;;;;;;;;5047735;28;19933;-66
2022/03/16 02:29:49;;;;;;;;;;;;;;;;;;5051398;28;19928;-67
2022/03/16 02:32:15;;;;;;;;;;;;;;;;;;5050187;28;19963;-66
2022/03/16 02:34:41;;;;;;;;;;;;;;;;;;5051826;28;19932;-66
2022/03/16 02:37:08;;;;;;;;;;;;;;;;;;5051959;28;20389;-66
2022/03/16 02:39:34;;;;;;;;;;;;;;;;;;5051606;28;19925;-65
2022/03/16 02:42:00;;;;;;;;;;;;;;;;;;5049755;28;19998;-66
2022/03/16 02:44:26;;;;;;;;;;;;;;;;;;5045688;28;19932;-68
2022/03/16 02:46:54;;;;;;;;;;;;;;;;;;5042653;28;19925;-66
2022/03/16 02:49:20;;;;;;;;;;;;;;;;;;5042853;28;19925;-66
2022/03/16 02:51:46;;;;;;;;;;;;;;;;;;5053961;28;19936;-66
2022/03/16 02:54:12;;;;;;;;;;;;;;;;;;5048196;28;19925;-66
2022/03/16 02:56:38;;;;;;;;;;;;;;;;;;5062795;28;19935;-65
2022/03/16 02:59:04;;;;;;;;;;;;;;;;;;5058909;28;19925;-65
2022/03/16 03:01:30;;;;;;;;;;;;;;;;;;5052210;28;20409;-65
2022/03/16 03:03:57;;;;;;;;;;;;;;;;;;5049144;28;19924;-66
2022/03/16 03:06:23;;;;;;;;;;;;;;;;;;5051333;28;20430;-67
2022/03/16 03:08:49;;;;;;;;;;;;;;;;;;5051443;28;19960;-66
2022/03/16 03:11:15;;;;;;;;;;;;;;;;;;5051518;28;19973;-65
2022/03/16 03:13:41;;;;;;;;;;;;;;;;;;5049144;28;20418;-66
2022/03/16 03:16:07;;;;;;;;;;;;;;;;;;5050435;28;19948;-65
2022/03/16 03:18:35;;;;;;;;;;;;;;;;;;5051265;28;19925;-64
2022/03/16 03:21:01;;;;;;;;;;;;;;;;;;5059920;28;20325;-66
2022/03/16 03:23:27;;;;;;;;;;;;;;;;;;5066324;28;19925;-66
2022/03/16 03:25:53;;;;;;;;;;;;;;;;;;5067592;28;19970;-66
2022/03/16 03:28:19;;;;;;;;;;;;;;;;;;5058805;28;19933;-66
2022/03/16 03:30:45;;;;;;;;;;;;;;;;;;5066547;28;19935;-66
2022/03/16 03:33:12;;;;;;;;;;;;;;;;;;5062573;28;19924;-67
2022/03/16 03:35:38;;;;;;;;;;;;;;;;;;5062819;28;19932;-66
2022/03/16 03:38:04;;;;;;;;;;;;;;;;;;5054027;28;20382;-65
2022/03/16 03:40:30;;;;;;;;;;;;;;;;;;5048446;28;19925;-65
2022/03/16 03:42:56;;;;;;;;;;;;;;;;;;5049962;28;19932;-65
2022/03/16 03:45:23;;;;;;;;;;;;;;;;;;5048557;28;20402;-64
2022/03/16 03:47:49;;;;;;;;;;;;;;;;;;5050332;28;19932;-64
2022/03/16 03:50:16;;;;;;;;;;;;;;;;;;5044888;28;20015;-66
2022/03/16 03:52:42;;;;;;;;;;;;;;;;;;5051212;28;19928;-65
2022/03/16 03:55:08;;;;;;;;;;;;;;;;;;5054772;28;19968;-67
2022/03/16 03:57:34;;;;;;;;;;;;;;;;;;5052968;28;19959;-64
2022/03/16 04:00:00;;;;;;;;;;;;;;;;;;5052647;28;19929;-65
2022/03/16 04:02:26;;;;;;;;;;;;;;;;;;5042330;28;19936;-65
2022/03/16 04:04:53;;;;;;;;;;;;;;;;;;5054189;28;19925;-65
2022/03/16 04:07:19;;;;;;;;;;;;;;;;;;5054720;28;19940;-66
2022/03/16 04:09:46;;;;;;;;;;;;;;;;;;5052075;28;19932;-66
2022/03/16 04:12:12;;;;;;;;;;;;;;;;;;5052930;28;19925;-67
2022/03/16 04:14:39;;;;;;;;;;;;;;;;;;5051850;28;19931;-66
2022/03/16 04:17:05;;;;;;;;;;;;;;;;;;5053909;28;19925;-66
2022/03/16 04:19:31;;;;;;;;;;;;;;;;;;5048868;28;19932;-71
2022/03/16 04:21:57;;;;;;;;;;;;;;;;;;5054325;28;19925;-70
2022/03/16 04:24:23;;;;;;;;;;;;;;;;;;5057891;28;19924;-70
2022/03/16 04:26:49;;;;;;;;;;;;;;;;;;5062168;28;19970;-71
2022/03/16 04:29:15;;;;;;;;;;;;;;;;;;5054938;28;20321;-70
2022/03/16 04:31:42;;;;;;;;;;;;;;;;;;5052967;28;19925;-70
2022/03/16 04:34:08;;;;;;;;;;;;;;;;;;5063603;28;19970;-70
2022/03/16 04:36:34;;;;;;;;;;;;;;;;;;5062800;28;19964;-70
2022/03/16 04:39:00;;;;;;;;;;;;;;;;;;5060493;28;19936;-69
2022/03/16 04:41:26;;;;;;;;;;;;;;;;;;5051324;28;19967;-70
2022/03/16 04:43:52;;;;;;;;;;;;;;;;;;5059799;28;19925;-70
2022/03/16 04:46:19;;;;;;;;;;;;;;;;;;5064015;28;19924;-70
2022/03/16 04:48:45;;;;;;;;;;;;;;;;;;5061184;28;19925;-71
2022/03/16 04:51:11;;;;;;;;;;;;;;;;;;5065391;28;19978;-71
2022/03/16 04:53:37;;;;;;;;;;;;;;;;;;5064017;28;19944;-70
2022/03/16 04:56:03;;;;;;;;;;;;;;;;;;5067318;28;19942;-70
2022/03/16 04:58:30;;;;;;;;;;;;;;;;;;5058714;28;19962;-68
2022/03/16 05:00:56;;;;;;;;;;;;;;;;;;5054097;28;20397;-67
2022/03/16 05:03:22;;;;;;;;;;;;;;;;;;5055700;28;19959;-68
2022/03/16 05:05:48;;;;;;;;;;;;;;;;;;5067055;28;19935;-67
2022/03/16 05:08:14;;;;;;;;;;;;;;;;;;5052018;28;19928;-68
2022/03/16 05:10:40;;;;;;;;;;;;;;;;;;5054243;28;19999;-68
2022/03/16 05:13:07;;;;;;;;;;;;;;;;;;5050977;28;19956;-68
2022/03/16 05:15:33;;;;;;;;;;;;;;;;;;5051477;28;19932;-67
2022/03/16 05:17:59;;;;;;;;;;;;;;;;;;5049114;28;21492;-66
2022/03/16 05:20:25;;;;;;;;;;;;;;;;;;5041915;28;19931;-66
2022/03/16 05:22:52;;;;;;;;;;;;;;;;;;5049903;28;19928;-67
2022/03/16 05:25:18;;;;;;;;;;;;;;;;;;5053283;28;20242;-65
2022/03/16 05:27:44;;;;;;;;;;;;;;;;;;5051116;28;19939;-66
2022/03/16 05:30:10;;;;;;;;;;;;;;;;;;5054478;28;19941;-65
2022/03/16 05:32:36;;;;;;;;;;;;;;;;;;5054245;28;19931;-66
2022/03/16 05:35:02;;;;;;;;;;;;;;;;;;5056977;28;20086;-65
2022/03/16 05:37:29;;;;;;;;;;;;;;;;;;5056183;28;19994;-66
2022/03/16 05:39:55;;;;;;;;;;;;;;;;;;5053512;28;19925;-66
2022/03/16 05:42:21;;;;;;;;;;;;;;;;;;5054531;28;20321;-66
2022/03/16 05:44:47;;;;;;;;;;;;;;;;;;5053479;28;19971;-66
2022/03/16 05:47:14;;;;;;;;;;;;;;;;;;5048626;28;20313;-65
2022/03/16 05:49:40;;;;;;;;;;;;;;;;;;5044999;28;19989;-65
2022/03/16 05:52:06;;;;;;;;;;;;;;;;;;5052852;28;20318;-66
2022/03/16 05:54:32;;;;;;;;;;;;;;;;;;5052637;28;19925;-68
2022/03/16 05:56:58;;;;;;;;;;;;;;;;;;5052635;28;19925;-69
2022/03/16 05:59:24;;;;;;;;;;;;;;;;;;5050639;28;20408;-68
2022/03/16 06:01:52;;;;;;;;;;;;;;;;;;5051453;28;20470;-70
2022/03/16 06:04:19;;;;;;;;;;;;;;;;;;5051617;28;20504;-71
2022/03/16 06:06:45;;;;;;;;;;;;;;;;;;5051639;28;19950;-70
2022/03/16 06:09:11;;;;;;;;;;;;;;;;;;4342233;28;10000810;-72
2022/03/16 06:11:39;;;;;;;;;;;;;;;;;;5040584;28;19982;-72
2022/03/16 06:14:05;;;;;;;;;;;;;;;;;;5043099;28;19936;-70
2022/03/16 06:16:31;;;;;;;;;;;;;;;;;;5044368;28;20024;-68
2022/03/16 06:18:57;;;;;;;;;;;;;;;;;;5039378;28;20016;-69
2022/03/16 06:21:24;;;;;;;;;;;;;;;;;;5050406;28;20249;-69
2022/03/16 06:23:50;;;;;;;;;;;;;;;;;;5049640;28;19959;-68
2022/03/16 06:26:16;;;;;;;;;;;;;;;;;;5049359;28;19973;-73
2022/03/16 06:28:42;;;;;;;;;;;;;;;;;;5047202;28;19925;-70
2022/03/16 06:31:08;;;;;;;;;;;;;;;;;;5045113;28;19936;-71
2022/03/16 06:33:34;;;;;;;;;;;;;;;;;;5049406;28;19924;-68
2022/03/16 06:36:00;;;;;;;;;;;;;;;;;;5049565;28;19964;-69
2022/03/16 06:38:27;;;;;;;;;;;;;;;;;;5049350;28;19953;-69
2022/03/16 06:40:53;;;;;;;;;;;;;;;;;;5046738;28;20257;-69
2022/03/16 06:43:21;;;;;;;;;;;;;;;;;;5045877;28;19925;-70
2022/03/16 06:45:47;;;;;;;;;;;;;;;;;;5038356;28;19979;-70
2022/03/16 06:48:13;;;;;;;;;;;;;;;;;;5040319;28;19985;-69
2022/03/16 06:50:39;;;;;;;;;;;;;;;;;;5047819;28;19925;-69
2022/03/16 06:53:05;;;;;;;;;;;;;;;;;;5048624;28;20333;-69
2022/03/16 06:55:31;;;;;;;;;;;;;;;;;;5048639;28;19928;-69
2022/03/16 06:57:58;;;;;;;;;;;;;;;;;;5048695;28;19925;-71
2022/03/16 07:00:24;;;;;;;;;;;;;;;;;;5048178;28;19936;-70
2022/03/16 07:02:50;;;;;;;;;;;;;;;;;;5055111;28;20409;-70
2022/03/16 07:05:16;;;;;;;;;;;;;;;;;;5049997;28;20441;-70
2022/03/16 07:07:42;;;;;;;;;;;;;;;;;;5044442;28;20347;-70
2022/03/16 07:10:08;;;;;;;;;;;;;;;;;;5046546;28;19935;-70
2022/03/16 07:12:34;;;;;;;;;;;;;;;;;;5041209;28;19931;-70
2022/03/16 07:15:01;;;;;;;;;;;;;;;;;;5047458;28;19925;-71
2022/03/16 07:17:27;;;;;;;;;;;;;;;;;;5045153;28;19955;-71
2022/03/16 07:19:53;;;;;;;;;;;;;;;;;;5038493;28;19925;-70
2022/03/16 07:22:19;;;;;;;;;;;;;;;;;;5045884;28;19964;-68
2022/03/16 07:24:45;;;;;;;;;;;;;;;;;;5047719;28;19983;-68
2022/03/16 07:27:12;;;;;;;;;;;;;;;;;;5048820;28;19960;-69
2022/03/16 07:29:38;;;;;;;;;;;;;;;;;;5051082;28;19939;-71
2022/03/16 07:32:05;;;;;;;;;;;;;;;;;;5043834;28;20394;-70
2022/03/16 07:34:31;;;;;;;;;;;;;;;;;;5052222;28;20015;-71
2022/03/16 07:36:57;;;;;;;;;;;;;;;;;;5050374;28;19950;-70
2022/03/16 07:39:23;;;;;;;;;;;;;;;;;;5046932;28;20289;-71
2022/03/16 07:41:49;;;;;;;;;;;;;;;;;;5051837;28;20064;-73
2022/03/16 07:44:15;;;;;;;;;;;;;;;;;;5052907;28;20031;-72
2022/03/16 07:46:42;;;;;;;;;;;;;;;;;;5048645;28;19928;-71
2022/03/16 07:49:08;;;;;;;;;;;;;;;;;;5051032;28;20441;-71
2022/03/16 07:51:34;;;;;;;;;;;;;;;;;;5052499;28;20187;-71
2022/03/16 07:54:00;;;;;;;;;;;;;;;;;;5052663;28;19929;-71
2022/03/16 07:56:26;;;;;;;;;;;;;;;;;;5051859;28;20341;-71
2022/03/16 07:58:54;;;;;;;;;;;;;;;;;;5035061;28;19925;-71
2022/03/16 08:01:20;;;;;;;;;;;;;;;;;;5043621;28;20023;-70
2022/03/16 08:03:46;;;;;;;;;;;;;;;;;;5044626;28;19990;-70
2022/03/16 08:06:12;;;;;;;;;;;;;;;;;;5046470;28;19929;-70
2022/03/16 08:08:39;;;;;;;;;;;;;;;;;;5042881;28;19935;-72
2022/03/16 08:11:05;;;;;;;;;;;;;;;;;;5052287;28;20336;-71
2022/03/16 08:13:31;;;;;;;;;;;;;;;;;;5050527;28;19935;-70
2022/03/16 08:15:58;;;;;;;;;;;;;;;;;;5050654;28;20348;-70
2022/03/16 08:18:24;;;;;;;;;;;;;;;;;;5047160;28;19925;-70
2022/03/16 08:20:50;;;;;;;;;;;;;;;;;;5051042;28;19932;-68
2022/03/16 08:23:16;;;;;;;;;;;;;;;;;;5050094;28;19998;-68
2022/03/16 08:25:42;;;;;;;;;;;;;;;;;;5047024;28;19929;-68
2022/03/16 08:28:08;;;;;;;;;;;;;;;;;;5048555;28;19971;-68
2022/03/16 08:30:35;;;;;;;;;;;;;;;;;;5050272;28;19932;-68
2022/03/16 08:33:01;;;;;;;;;;;;;;;;;;5050243;28;20242;-68
2022/03/16 08:35:27;;;;;;;;;;;;;;;;;;5051802;28;20329;-68
2022/03/16 08:37:53;;;;;;;;;;;;;;;;;;5050601;28;20010;-69
2022/03/16 08:40:20;;;;;;;;;;;;;;;;;;5051087;28;19935;-68
2022/03/16 08:42:46;;;;;;;;;;;;;;;;;;5049472;28;20340;-69
2022/03/16 08:45:12;;;;;;;;;;;;;;;;;;5046107;28;20409;-68
2022/03/16 08:47:38;;;;;;;;;;;;;;;;;;5049884;28;19929;-68
2022/03/16 08:50:04;;;;;;;;;;;;;;;;;;5047334;28;19929;-68
2022/03/16 08:52:30;;;;;;;;;;;;;;;;;;5049991;28;19959;-67
2022/03/16 08:54:57;;;;;;;;;;;;;;;;;;5051258;28;19988;-68
2022/03/16 08:57:23;;;;;;;;;;;;;;;;;;5061283;28;19959;-68
2022/03/16 08:59:49;;;;;;;;;;;;;;;;;;5059602;28;19929;-67
2022/03/16 09:02:15;;;;;;;;;;;;;;;;;;5057941;28;19958;-68
2022/03/16 09:04:41;;;;;;;;;;;;;;;;;;5059920;28;19933;-67
2022/03/16 09:07:07;;;;;;;;;;;;;;;;;;5059561;28;19928;-67
2022/03/16 09:09:34;;;;;;;;;;;;;;;;;;5051251;28;19929;-67
2022/03/16 09:12:00;;;;;;;;;;;;;;;;;;5050962;28;19983;-67
2022/03/16 09:14:27;;;;;;;;;;;;;;;;;;5049140;28;19949;-67
2022/03/16 09:16:53;;;;;;;;;;;;;;;;;;5047644;28;20461;-67
2022/03/16 09:19:21;;;;;;;;;;;;;;;;;;5048196;28;19924;-67
2022/03/16 09:21:47;;;;;;;;;;;;;;;;;;5049212;28;19979;-70
2022/03/16 09:24:13;;;;;;;;;;;;;;;;;;5048419;28;19931;-71
2022/03/16 09:26:40;;;;;;;;;;;;;;;;;;5039644;28;19925;-71
2022/03/16 09:29:08;;;;;;;;;;;;;;;;;;5050962;28;19987;-69
2022/03/16 09:31:35;;;;;;;;;;;;;;;;;;5050409;28;19988;-71
2022/03/16 09:34:02;;;;;;;;;;;;;;;;;;5050955;28;19933;-70
2022/03/16 09:36:28;;;;;;;;;;;;;;;;;;5051030;28;19964;-70
2022/03/16 09:38:55;;;;;;;;;;;;;;;;;;5050301;28;19932;-71
2022/03/16 09:41:22;;;;;;;;;;;;;;;;;;5051465;28;20015;-71
2022/03/16 09:43:48;;;;;;;;;;;;;;;;;;5048434;28;20396;-70
2022/03/16 09:46:15;;;;;;;;;;;;;;;;;;5040359;28;19936;-69
2022/03/16 09:48:41;;;;;;;;;;;;;;;;;;5038901;28;19925;-70
2022/03/16 09:51:07;;;;;;;;;;;;;;;;;;5049207;28;19947;-70
2022/03/16 09:53:33;;;;;;;;;;;;;;;;;;5048413;28;19956;-71
2022/03/16 09:55:59;;;;;;;;;;;;;;;;;;5043794;28;19925;-70
2022/03/16 09:58:26;;;;;;;;;;;;;;;;;;5050306;28;19975;-71
2022/03/16 10:00:53;;;;;;;;;;;;;;;;;;5054399;28;19928;-70
2022/03/16 10:03:19;;;;;;;;;;;;;;;;;;5053218;28;19929;-72
2022/03/16 10:05:45;;;;;;;;;;;;;;;;;;5048622;28;20305;-69
2022/03/16 10:08:14;;;;;;;;;;;;;;;;;;5043058;28;19964;-71
2022/03/16 10:13:24;;;;;;;;;;;;;;;;;;5049362;28;20484;-71
2022/03/16 10:15:50;;;;;;;;;;;;;;;;;;5049877;28;20502;-70
2022/03/16 10:18:16;;;;;;;;;;;;;;;;;;5046055;28;19936;-70
2022/03/16 10:20:43;;;;;;;;;;;;;;;;;;5042811;28;19933;-70
2022/03/16 10:23:10;;;;;;;;;;;;;;;;;;5047103;28;19958;-70
2022/03/16 10:25:36;;;;;;;;;;;;;;;;;;5046893;28;20254;-71
2022/03/16 10:28:10;;;;;;;;;;;;;;;;;;5035635;28;19929;-72
2022/03/16 10:30:36;;;;;;;;;;;;;;;;;;5042553;28;20444;-72
2022/03/16 10:33:03;;;;;;;;;;;;;;;;;;5046490;28;19933;-73
2022/03/16 10:35:29;;;;;;;;;;;;;;;;;;5045463;28;20430;-72
2022/03/16 10:37:55;;;;;;;;;;;;;;;;;;5049868;28;19948;-73
2022/03/16 10:40:23;;;;;;;;;;;;;;;;;;5049031;28;19924;-73
2022/03/16 10:48:18;;;;;;;;;;;;;;;;;;5038830;28;20207;-72
2022/03/16 10:50:44;;;;;;;;;;;;;;;;;;5048132;28;19924;-73
2022/03/16 10:53:10;;;;;;;;;;;;;;;;;;5048811;28;20278;-71
2022/03/16 10:55:37;;;;;;;;;;;;;;;;;;5049176;28;20306;-71
2022/03/16 10:58:03;;;;;;;;;;;;;;;;;;5058522;28;19929;-73
2022/03/16 11:00:29;;;;;;;;;;;;;;;;;;5049371;28;19929;-73
2022/03/16 11:02:56;;;;;;;;;;;;;;;;;;5050517;28;20373;-71
2022/03/16 11:05:23;;;;;;;;;;;;;;;;;;5049706;28;20014;-73
2022/03/16 11:07:50;;;;;;;;;;;;;;;;;;5055516;28;20315;-73
2022/03/16 11:10:16;;;;;;;;;;;;;;;;;;5051972;28;19929;-73
2022/03/16 11:15:26;;;;;;;;;;;;;;;;;;5056376;28;19924;-72
2022/03/16 11:17:52;;;;;;;;;;;;;;;;;;5048277;28;20365;-72
2022/03/16 11:20:19;;;;;;;;;;;;;;;;;;5051215;28;20391;-72
2022/03/16 11:25:26;;;;;;;;;;;;;;;;;;5053856;28;19975;-72
2022/03/16 11:27:52;;;;;;;;;;;;;;;;;;5056072;28;19925;-72
2022/03/16 11:30:19;;;;;;;;;;;;;;;;;;5051826;28;20259;-72
2022/03/16 11:32:45;;;;;;;;;;;;;;;;;;5053156;28;19968;-72
2022/03/16 11:35:12;;;;;;;;;;;;;;;;;;5048287;28;20022;-71
2022/03/16 11:37:38;;;;;;;;;;;;;;;;;;5053971;28;20019;-72
2022/03/16 11:40:05;;;;;;;;;;;;;;;;;;5054240;28;19925;-72
2022/03/16 11:42:32;;;;;;;;;;;;;;;;;;5055049;28;20018;-71
2022/03/16 11:44:59;;;;;;;;;;;;;;;;;;5055597;28;19951;-71
2022/03/16 11:47:25;;;;;;;;;;;;;;;;;;5041759;28;19964;-72
2022/03/16 11:49:51;;;;;;;;;;;;;;;;;;5048508;28;19929;-71
2022/03/16 11:52:18;;;;;;;;;;;;;;;;;;5055138;28;20028;-71
2022/03/16 11:54:45;;;;;;;;;;;;;;;;;;5054326;28;19929;-72
2022/03/16 11:57:11;;;;;;;;;;;;;;;;;;5056088;28;19935;-71
2022/03/16 11:59:40;;;;;;;;;;;;;;;;;;5053382;28;19929;-72
2022/03/16 12:02:07;;;;;;;;;;;;;;;;;;5051472;28;19932;-73
2022/03/16 12:04:33;;;;;;;;;;;;;;;;;;5052890;28;19939;-72
2022/03/16 12:07:01;;;;;;;;;;;;;;;;;;5052727;28;20349;-72
2022/03/16 12:09:27;;;;;;;;;;;;;;;;;;5047369;28;20037;-73
2022/03/16 12:14:37;;;;;;;;;;;;;;;;;;5046969;28;19931;-73
2022/03/16 12:17:03;;;;;;;;;;;;;;;;;;5051241;28;19940;-73
2022/03/16 12:19:30;;;;;;;;;;;;;;;;;;5046055;28;20398;-70
2022/03/16 12:21:56;;;;;;;;;;;;;;;;;;5051195;28;19928;-72
2022/03/16 12:29:50;;;;;;;;;;;;;;;;;;5042105;28;19924;-71
2022/03/16 12:32:20;;;;;;;;;;;;;;;;;;5052751;28;20388;-74
2022/03/16 12:34:46;;;;;;;;;;;;;;;;;;5050187;28;19929;-72
2022/03/16 12:37:13;;;;;;;;;;;;;;;;;;5050348;28;20445;-73
2022/03/16 12:39:39;;;;;;;;;;;;;;;;;;5049701;28;19929;-73
2022/03/16 12:44:50;;;;;;;;;;;;;;;;;;5047641;28;19919;-73
2022/03/16 12:47:17;;;;;;;;;;;;;;;;;;5046444;28;19933;-72
2022/03/16 12:49:43;;;;;;;;;;;;;;;;;;5045673;28;19925;-72
2022/03/16 12:52:10;;;;;;;;;;;;;;;;;;5048936;28;19928;-72
2022/03/16 12:54:37;;;;;;;;;;;;;;;;;;5051055;28;19929;-72
2022/03/16 12:57:05;;;;;;;;;;;;;;;;;;5050557;28;19929;-72
2022/03/16 12:59:31;;;;;;;;;;;;;;;;;;5048745;28;19925;-72
2022/03/16 13:01:58;;;;;;;;;;;;;;;;;;5046829;28;20307;-72
2022/03/16 13:04:24;;;;;;;;;;;;;;;;;;5051212;28;19932;-72
2022/03/16 13:06:51;;;;;;;;;;;;;;;;;;5048530;28;19974;-73
2022/03/16 13:09:17;;;;;;;;;;;;;;;;;;5044131;28;19928;-72
2022/03/16 13:11:43;;;;;;;;;;;;;;;;;;5047032;28;19928;-72
2022/03/16 13:14:13;;;;;;;;;;;;;;;;;;5049617;28;19925;-72
2022/03/16 13:16:39;;;;;;;;;;;;;;;;;;5049661;28;19928;-72
2022/03/16 13:19:05;;;;;;;;;;;;;;;;;;5046748;28;19930;-72
2022/03/16 13:21:31;;;;;;;;;;;;;;;;;;5048259;28;19980;-72
2022/03/16 13:23:57;;;;;;;;;;;;;;;;;;5046204;28;19936;-72
2022/03/16 13:26:25;;;;;;;;;;;;;;;;;;5047533;28;20289;-72
2022/03/16 13:28:51;;;;;;;;;;;;;;;;;;5049370;28;20403;-72
2022/03/16 13:31:17;;;;;;;;;;;;;;;;;;5048057;28;19925;-72
2022/03/16 13:33:43;;;;;;;;;;;;;;;;;;5049024;28;19958;-73
2022/03/16 13:36:10;;;;;;;;;;;;;;;;;;5048419;28;19929;-73
2022/03/16 13:38:37;;;;;;;;;;;;;;;;;;5049112;28;19925;-72
2022/03/16 13:41:03;;;;;;;;;;;;;;;;;;5047002;28;19925;-72
2022/03/16 13:43:31;;;;;;;;;;;;;;;;;;5044692;28;19952;-72
2022/03/16 13:45:57;;;;;;;;;;;;;;;;;;5045578;28;19936;-72
2022/03/16 13:48:25;;;;;;;;;;;;;;;;;;5037376;28;20473;-72
2022/03/16 13:50:51;;;;;;;;;;;;;;;;;;5047292;28;19929;-72
2022/03/16 13:53:17;;;;;;;;;;;;;;;;;;5047875;28;19928;-72
2022/03/16 13:55:51;;;;;;;;;;;;;;;;;;5050168;28;20028;-72
2022/03/16 13:58:18;;;;;;;;;;;;;;;;;;5050860;28;19964;-72
2022/03/16 14:00:45;;;;;;;;;;;;;;;;;;5049887;28;19928;-73
2022/03/16 14:03:11;;;;;;;;;;;;;;;;;;5045028;28;19935;-72
2022/03/16 14:05:39;;;;;;;;;;;;;;;;;;5047315;28;20018;-73
2022/03/16 14:08:05;;;;;;;;;;;;;;;;;;5041968;28;19933;-73
2022/03/16 14:10:32;;;;;;;;;;;;;;;;;;5048975;28;19925;-71
2022/03/16 14:12:58;;;;;;;;;;;;;;;;;;5045841;28;19928;-71
2022/03/16 14:15:24;;;;;;;;;;;;;;;;;;5045265;28;19936;-71
2022/03/16 14:17:54;;;;;;;;;;;;;;;;;;5043189;28;20406;-70
2022/03/16 14:20:20;;;;;;;;;;;;;;;;;;5046825;28;19931;-73
2022/03/16 14:22:49;;;;;;;;;;;;;;;;;;5046133;28;20520;-73
2022/03/16 14:25:15;;;;;;;;;;;;;;;;;;5047089;28;20238;-71
2022/03/16 14:27:41;;;;;;;;;;;;;;;;;;5045839;28;19929;-72
2022/03/16 14:30:07;;;;;;;;;;;;;;;;;;5033843;28;19929;-70
2022/03/16 14:32:33;;;;;;;;;;;;;;;;;;5044957;28;19933;-69
2022/03/16 14:34:59;;;;;;;;;;;;;;;;;;5048177;28;19935;-71
2022/03/16 14:37:26;;;;;;;;;;;;;;;;;;5036595;28;20394;-71
2022/03/16 14:39:52;;;;;;;;;;;;;;;;;;5047425;28;20187;-71
2022/03/16 14:42:19;;;;;;;;;;;;;;;;;;5046020;28;19939;-70
2022/03/16 14:44:45;;;;;;;;;;;;;;;;;;5043576;28;20080;-71
2022/03/16 14:47:12;;;;;;;;;;;;;;;;;;5046318;28;19956;-71
2022/03/16 14:49:38;;;;;;;;;;;;;;;;;;5042849;28;19936;-71
2022/03/16 14:52:05;;;;;;;;;;;;;;;;;;5039417;28;19978;-71
2022/03/16 14:54:31;;;;;;;;;;;;;;;;;;5033868;28;19936;-71
2022/03/16 14:57:00;;;;;;;;;;;;;;;;;;5038252;28;19928;-71
2022/03/16 14:59:26;;;;;;;;;;;;;;;;;;5042128;28;19933;-71
2022/03/16 15:01:52;;;;;;;;;;;;;;;;;;5039159;28;19925;-71
2022/03/16 15:04:18;;;;;;;;;;;;;;;;;;5042791;28;19932;-71
2022/03/16 15:06:44;;;;;;;;;;;;;;;;;;5039169;28;19929;-71
2022/03/16 15:09:10;;;;;;;;;;;;;;;;;;5043081;28;19932;-71
2022/03/16 15:11:38;;;;;;;;;;;;;;;;;;5042036;28;19932;-71
2022/03/16 15:14:04;;;;;;;;;;;;;;;;;;5044243;28;19958;-71
2022/03/16 15:16:30;;;;;;;;;;;;;;;;;;5042922;28;19936;-70
2022/03/16 15:18:56;;;;;;;;;;;;;;;;;;5036578;28;19925;-71
2022/03/16 15:21:23;;;;;;;;;;;;;;;;;;5045088;28;19936;-71
2022/03/16 15:23:49;;;;;;;;;;;;;;;;;;5043907;28;19955;-71
2022/03/16 15:26:15;;;;;;;;;;;;;;;;;;5045959;28;19925;-71
2022/03/16 15:28:41;;;;;;;;;;;;;;;;;;5044747;28;20015;-70
2022/03/16 15:31:07;;;;;;;;;;;;;;;;;;5047133;28;19931;-71
2022/03/16 15:33:33;;;;;;;;;;;;;;;;;;5046707;28;19931;-71
2022/03/16 15:36:00;;;;;;;;;;;;;;;;;;5045797;28;20019;-70
2022/03/16 15:38:26;;;;;;;;;;;;;;;;;;5043194;28;20115;-71
2022/03/16 15:43:36;;;;;;;;;;;;;;;;;;5047745;28;20004;-70
2022/03/16 15:46:02;;;;;;;;;;;;;;;;;;5045070;28;19933;-71
2022/03/16 15:48:28;;;;;;;;;;;;;;;;;;5046368;28;19925;-70
2022/03/16 15:50:54;;;;;;;;;;;;;;;;;;5036157;28;19936;-71
2022/03/16 15:53:20;;;;;;;;;;;;;;;;;;5047778;28;19955;-69
2022/03/16 15:55:47;;;;;;;;;;;;;;;;;;5042709;28;19932;-69
2022/03/16 15:58:13;;;;;;;;;;;;;;;;;;5037971;28;19960;-68
2022/03/16 16:00:41;;;;;;;;;;;;;;;;;;5044119;28;19936;-69
2022/03/16 16:03:07;;;;;;;;;;;;;;;;;;5048880;28;20336;-70
2022/03/16 16:05:33;;;;;;;;;;;;;;;;;;5044579;28;20543;-69
2022/03/16 16:07:59;;;;;;;;;;;;;;;;;;5043546;28;19925;-69
2022/03/16 16:10:25;;;;;;;;;;;;;;;;;;5042247;28;19928;-69
2022/03/16 16:12:52;;;;;;;;;;;;;;;;;;5049566;28;20389;-70
2022/03/16 16:15:19;;;;;;;;;;;;;;;;;;5049639;28;20409;-69
2022/03/16 16:17:45;;;;;;;;;;;;;;;;;;5048885;28;19979;-70
2022/03/16 16:20:15;;;;;;;;;;;;;;;;;;5042424;28;19940;-71
2022/03/16 16:22:41;;;;;;;;;;;;;;;;;;5047808;28;19928;-69
2022/03/16 16:25:09;;;;;;;;;;;;;;;;;;5038816;28;19928;-69
2022/03/16 16:27:36;;;;;;;;;;;;;;;;;;5042045;28;19929;-70
2022/03/16 16:30:17;;;;;;;;;;;;;;;;;;5048104;28;19984;-69
2022/03/16 16:32:44;;;;;;;;;;;;;;;;;;5045725;28;19928;-69
2022/03/16 16:35:10;;;;;;;;;;;;;;;;;;5040900;28;19929;-69
2022/03/16 16:37:36;;;;;;;;;;;;;;;;;;5048923;28;20456;-69
2022/03/16 16:40:02;;;;;;;;;;;;;;;;;;5046375;28;20361;-69
2022/03/16 16:45:14;;;;;;;;;;;;;;;;;;5041499;28;20047;-69
2022/03/16 16:47:40;;;;;;;;;;;;;;;;;;5035809;28;19928;-68
2022/03/16 16:50:09;;;;;;;;;;;;;;;;;;5050417;28;19928;-68
2022/03/16 16:52:35;;;;;;;;;;;;;;;;;;5046711;28;19976;-69
2022/03/16 16:55:02;;;;;;;;;;;;;;;;;;5050181;28;19929;-69
2022/03/16 16:57:29;;;;;;;;;;;;;;;;;;5037281;28;19971;-69
2022/03/16 16:59:55;;;;;;;;;;;;;;;;;;5034278;28;20509;-70
2022/03/16 17:02:22;;;;;;;;;;;;;;;;;;5044128;28;20356;-69
2022/03/16 17:04:48;;;;;;;;;;;;;;;;;;5044676;28;20416;-69
2022/03/16 17:07:15;;;;;;;;;;;;;;;;;;5050050;28;19939;-69
2022/03/16 17:09:41;;;;;;;;;;;;;;;;;;5056975;28;19925;-69